createdAt,value
2023-09-09T00:00:53.260Z,14.02
2023-09-09T00:03:22.906Z,16.85
2023-09-09T00:05:50.832Z,14.25
2023-09-09T00:08:20.215Z,17.67
2023-09-09T00:10:48.506Z,15.45
2023-09-09T00:13:16.326Z,16.23
2023-09-09T00:15:43.897Z,19.52
2023-09-09T00:18:11.222Z,14.75
2023-09-09T00:20:41.947Z,17.15
2023-09-09T00:23:09.654Z,14.18
2023-09-09T00:25:39.425Z,16.52
2023-09-09T00:28:08.498Z,15.85
2023-09-09T00:30:35.760Z,12.50
2023-09-09T00:33:03.984Z,17.27
2023-09-09T00:35:34.338Z,18.13
2023-09-09T00:38:01.944Z,10.75
2023-09-09T00:40:29.345Z,15.38
2023-09-09T00:42:56.566Z,16.83
2023-09-09T00:45:24.797Z,13.38
2023-09-09T00:47:52.463Z,18.48
2023-09-09T00:50:21.124Z,15.13
2023-09-09T00:52:48.428Z,15.00
2023-09-09T00:55:16.201Z,17.60
2023-09-09T00:57:43.496Z,13.73
2023-09-09T01:00:11.682Z,14.45
2023-09-09T01:02:40.578Z,19.30
2023-09-09T01:05:09.186Z,18.33
2023-09-09T01:07:47.619Z,14.52
2023-09-09T01:10:17.474Z,13.57
2023-09-09T01:12:44.922Z,15.15
2023-09-09T01:15:13.453Z,13.93
2023-09-09T01:17:41.318Z,16.42
2023-09-09T01:20:15.777Z,15.27
2023-09-09T01:22:47.349Z,18.33
2023-09-09T01:25:14.595Z,13.10
2023-09-09T01:27:42.929Z,15.13
2023-09-09T01:30:12.599Z,15.70
2023-09-09T01:32:40.364Z,14.93
2023-09-09T01:35:09.061Z,17.67
2023-09-09T01:37:36.386Z,11.88
2023-09-09T01:40:13.570Z,13.50
2023-09-09T01:42:41.928Z,14.35
2023-09-09T01:45:09.438Z,18.52
2023-09-09T01:47:36.666Z,19.75
2023-09-09T01:50:04.384Z,19.10
2023-09-09T01:52:31.658Z,12.68
2023-09-09T01:54:58.952Z,12.40
2023-09-09T01:57:28.005Z,14.18
2023-09-09T01:59:55.668Z,17.98
2023-09-09T02:02:23.568Z,17.40
2023-09-09T02:04:50.865Z,13.70
2023-09-09T02:07:18.131Z,13.00
2023-09-09T02:09:46.827Z,15.30
2023-09-09T02:12:14.086Z,12.32
2023-09-09T02:14:41.784Z,16.77
2023-09-09T02:17:09.494Z,14.77
2023-09-09T02:19:36.965Z,15.13
2023-09-09T02:22:06.179Z,18.45
2023-09-09T02:24:33.392Z,15.75
2023-09-09T02:27:00.633Z,16.27
2023-09-09T02:29:28.170Z,14.13
2023-09-09T02:31:55.428Z,15.90
2023-09-09T02:34:22.626Z,15.40
2023-09-09T02:37:20.372Z,14.77
2023-09-09T02:39:52.615Z,15.20
2023-09-09T02:42:22.824Z,14.63
2023-09-09T02:44:51.072Z,15.23
2023-09-09T02:47:19.261Z,13.52
2023-09-09T02:49:47.671Z,16.90
2023-09-09T02:52:15.011Z,20.80
2023-09-09T02:54:42.365Z,12.77
2023-09-09T02:57:09.646Z,13.90
2023-09-09T02:59:37.926Z,15.60
2023-09-09T03:02:06.094Z,18.63
2023-09-09T03:04:33.415Z,20.50
2023-09-09T03:07:02.016Z,13.77
2023-09-09T03:09:31.083Z,14.63
2023-09-09T03:11:58.506Z,13.63
2023-09-09T03:14:25.955Z,19.42
2023-09-09T03:16:53.484Z,15.85
2023-09-09T03:19:20.850Z,13.82
2023-09-09T03:21:48.574Z,14.50
2023-09-09T03:24:15.924Z,12.45
2023-09-09T03:26:43.363Z,15.30
2023-09-09T03:29:10.584Z,15.65
2023-09-09T03:31:37.796Z,11.77
2023-09-09T03:34:06.915Z,11.57
2023-09-09T03:36:36.472Z,14.02
2023-09-09T03:39:04.470Z,14.10
2023-09-09T03:41:32.228Z,16.63
2023-09-09T03:43:59.795Z,15.65
2023-09-09T03:46:28.025Z,12.80
2023-09-09T03:48:55.389Z,12.65
2023-09-09T03:51:22.944Z,10.75
2023-09-09T03:53:50.240Z,11.95
2023-09-09T03:56:18.628Z,11.43
2023-09-09T03:58:45.824Z,13.25
2023-09-09T04:01:14.157Z,17.45
2023-09-09T04:03:42.728Z,13.35
2023-09-09T04:06:12.778Z,18.38
2023-09-09T04:08:41.199Z,16.05
2023-09-09T04:11:08.643Z,15.32
2023-09-09T04:13:39.751Z,14.05
2023-09-09T04:16:07.507Z,15.35
2023-09-09T04:18:45.767Z,13.98
2023-09-09T04:21:14.318Z,11.50
2023-09-09T04:23:41.839Z,9.93
2023-09-09T04:26:09.343Z,11.57
2023-09-09T04:28:36.615Z,16.42
2023-09-09T04:31:04.847Z,13.35
2023-09-09T04:33:32.136Z,12.38
2023-09-09T04:35:59.567Z,11.27
2023-09-09T04:38:26.858Z,11.68
2023-09-09T04:40:54.094Z,11.07
2023-09-09T04:43:21.934Z,15.45
2023-09-09T04:45:49.341Z,12.57
2023-09-09T04:48:16.769Z,14.52
2023-09-09T04:50:44.113Z,13.77
2023-09-09T04:53:11.312Z,14.02
2023-09-09T04:55:38.582Z,13.68
2023-09-09T04:58:11.313Z,13.93
2023-09-09T05:00:39.263Z,12.05
2023-09-09T05:03:06.698Z,11.82
2023-09-09T05:05:34.065Z,16.02
2023-09-09T05:08:01.624Z,14.93
2023-09-09T05:10:30.967Z,18.30
2023-09-09T05:12:58.298Z,14.43
2023-09-09T05:15:25.556Z,14.68
2023-09-09T05:17:52.770Z,19.23
2023-09-09T05:20:20.451Z,18.02
2023-09-09T05:22:47.850Z,10.90
2023-09-09T05:25:15.157Z,10.68
2023-09-09T05:27:42.796Z,9.48
2023-09-09T05:30:10.133Z,11.23
2023-09-09T05:32:38.152Z,13.90
2023-09-09T05:35:07.195Z,11.65
2023-09-09T05:37:34.517Z,19.52
2023-09-09T05:40:04.082Z,15.85
2023-09-09T05:42:31.993Z,12.13
2023-09-09T05:44:59.299Z,17.33
2023-09-09T05:47:26.567Z,11.13
2023-09-09T05:49:53.881Z,14.80
2023-09-09T05:52:21.080Z,13.73
2023-09-09T05:54:48.377Z,14.68
2023-09-09T05:57:15.694Z,16.38
2023-09-09T05:59:43.208Z,15.50
2023-09-09T06:02:10.549Z,20.15
2023-09-09T06:04:37.950Z,19.23
2023-09-09T06:07:05.782Z,13.73
2023-09-09T06:09:33.021Z,17.75
2023-09-09T06:12:00.464Z,17.95
2023-09-09T06:14:27.847Z,16.95
2023-09-09T06:16:55.059Z,15.43
2023-09-09T06:19:22.330Z,12.35
2023-09-09T06:21:49.840Z,19.30
2023-09-09T06:24:21.419Z,18.70
2023-09-09T06:26:48.722Z,20.83
2023-09-09T06:29:16.174Z,16.45
2023-09-09T06:31:43.905Z,25.50
2023-09-09T06:34:12.391Z,18.20
2023-09-09T06:36:39.596Z,18.77
2023-09-09T06:39:06.894Z,20.95
2023-09-09T06:41:34.223Z,17.40
2023-09-09T06:44:01.467Z,20.65
2023-09-09T06:49:02.741Z,21.92
2023-09-09T06:51:30.287Z,22.88
2023-09-09T06:53:58.145Z,25.83
2023-09-09T06:56:25.377Z,21.55
2023-09-09T06:58:52.638Z,21.45
2023-09-09T07:01:19.857Z,21.85
2023-09-09T07:03:47.180Z,23.42
2023-09-09T07:06:14.461Z,18.75
2023-09-09T07:08:42.088Z,20.08
2023-09-09T07:11:12.469Z,17.42
2023-09-09T07:13:39.867Z,23.30
2023-09-09T07:16:07.439Z,19.95
2023-09-09T07:18:34.741Z,15.93
2023-09-09T07:21:02.062Z,18.92
2023-09-09T07:23:29.389Z,19.05
2023-09-09T07:25:56.823Z,19.45
2023-09-09T07:28:26.915Z,17.60
2023-09-09T07:30:54.440Z,16.10
2023-09-09T07:33:21.757Z,16.65
2023-09-09T07:35:51.712Z,13.95
2023-09-09T07:38:19.220Z,15.80
2023-09-09T07:40:46.562Z,16.70
2023-09-09T07:43:15.473Z,15.68
2023-09-09T07:45:49.529Z,12.50
2023-09-09T07:48:17.440Z,16.02
2023-09-09T07:50:52.668Z,13.13
2023-09-09T07:53:22.015Z,16.63
2023-09-09T07:55:50.147Z,17.65
2023-09-09T07:58:19.172Z,13.63
2023-09-09T08:00:48.105Z,10.45
2023-09-09T08:03:15.535Z,9.35
2023-09-09T08:05:43.060Z,10.60
2023-09-09T08:08:11.460Z,13.93
2023-09-09T08:11:06.177Z,12.02
2023-09-09T08:13:33.805Z,16.70
2023-09-09T08:16:01.452Z,9.82
2023-09-09T08:18:29.076Z,9.63
2023-09-09T08:20:56.540Z,9.63
2023-09-09T08:23:24.098Z,11.20
2023-09-09T08:25:51.405Z,7.57
2023-09-09T08:28:19.880Z,16.58
2023-09-09T08:30:48.269Z,8.27
2023-09-09T08:33:15.639Z,9.65
2023-09-09T08:35:42.832Z,11.80
2023-09-09T08:38:10.384Z,10.85
2023-09-09T08:40:55.195Z,11.30
2023-09-09T08:43:46.401Z,8.98
2023-09-09T08:46:18.774Z,11.03
2023-09-09T08:48:52.023Z,9.25
2023-09-09T08:51:47.557Z,12.30
2023-09-09T08:54:16.785Z,9.43
2023-09-09T08:56:46.054Z,11.10
2023-09-09T08:59:15.084Z,9.30
2023-09-09T09:01:44.000Z,9.70
2023-09-09T09:04:14.877Z,13.60
2023-09-09T09:06:46.374Z,11.80
2023-09-09T09:09:13.595Z,11.77
2023-09-09T09:11:40.923Z,12.98
2023-09-09T09:14:09.429Z,9.98
2023-09-09T09:16:42.043Z,14.55
2023-09-09T09:19:19.302Z,10.98
2023-09-09T09:21:46.731Z,12.60
2023-09-09T09:24:15.043Z,17.92
2023-09-09T09:26:42.743Z,17.38
2023-09-09T09:29:09.979Z,13.60
2023-09-09T09:31:37.734Z,11.93
2023-09-09T09:34:05.025Z,7.28
2023-09-09T09:36:32.237Z,11.98
2023-09-09T09:39:02.474Z,13.93
2023-09-09T09:41:30.614Z,18.10
2023-09-09T09:43:57.856Z,14.02
2023-09-09T09:46:25.242Z,8.27
2023-09-09T09:48:52.739Z,12.05
2023-09-09T09:51:20.047Z,9.38
2023-09-09T09:53:50.271Z,17.45
2023-09-09T09:56:18.440Z,15.20
2023-09-09T09:58:47.943Z,6.68
2023-09-09T10:01:15.517Z,12.57
2023-09-09T10:03:59.213Z,10.32
2023-09-09T10:06:30.386Z,11.02
2023-09-09T10:09:27.014Z,11.35
2023-09-09T10:12:41.621Z,12.82
2023-09-09T10:15:16.992Z,12.32
2023-09-09T10:17:46.747Z,8.45
2023-09-09T10:20:15.926Z,8.77
2023-09-09T10:22:44.842Z,19.60
2023-09-09T10:25:13.687Z,8.15
2023-09-09T10:27:42.175Z,11.82
2023-09-09T10:30:10.801Z,8.65
2023-09-09T10:32:39.490Z,9.43
2023-09-09T10:35:08.325Z,9.98
2023-09-09T10:37:39.068Z,8.63
2023-09-09T10:40:08.521Z,12.35
2023-09-09T10:42:39.632Z,24.88
2023-09-09T10:45:34.078Z,14.43
2023-09-09T10:48:07.270Z,12.55
2023-09-09T10:50:54.694Z,9.30
2023-09-09T10:53:32.793Z,11.77
2023-09-09T10:56:22.799Z,13.75
2023-09-09T10:58:52.438Z,7.03
2023-09-09T11:01:29.377Z,10.55
2023-09-09T11:03:58.877Z,9.23
2023-09-09T11:06:33.127Z,9.88
2023-09-09T11:09:03.680Z,10.07
2023-09-09T11:11:38.446Z,9.93
2023-09-09T11:14:08.472Z,9.18
2023-09-09T11:16:37.594Z,9.60
2023-09-09T11:19:14.389Z,11.90
2023-09-09T11:21:47.372Z,7.88
2023-09-09T11:24:15.782Z,7.57
2023-09-09T11:26:46.493Z,14.52
2023-09-09T11:29:25.828Z,12.27
2023-09-09T11:32:02.207Z,11.23
2023-09-09T11:34:34.482Z,6.68
2023-09-09T11:37:04.317Z,9.32
2023-09-09T11:39:39.118Z,12.77
2023-09-09T11:42:06.448Z,9.57
2023-09-09T11:44:44.829Z,9.88
2023-09-09T11:47:12.741Z,9.43
2023-09-09T11:49:43.049Z,10.10
2023-09-09T11:52:10.496Z,9.50
2023-09-09T11:54:38.357Z,9.73
2023-09-09T11:57:09.770Z,9.50
2023-09-09T11:59:51.364Z,6.20
2023-09-09T12:02:25.095Z,7.78
2023-09-09T12:05:04.001Z,7.40
2023-09-09T12:07:37.708Z,14.25
2023-09-09T12:10:14.171Z,10.57
2023-09-09T12:12:43.108Z,11.02
2023-09-09T12:15:13.257Z,10.40
2023-09-09T12:17:41.125Z,12.05
2023-09-09T12:20:09.787Z,11.02
2023-09-09T12:22:51.169Z,9.82
2023-09-09T12:25:36.568Z,6.82
2023-09-09T12:28:04.950Z,10.07
2023-09-09T12:30:34.122Z,8.18
2023-09-09T12:33:13.214Z,8.20
2023-09-09T12:35:47.079Z,8.15
2023-09-09T12:38:18.495Z,10.40
2023-09-09T12:40:54.470Z,7.43
2023-09-09T12:43:26.529Z,8.88
2023-09-09T12:46:06.929Z,10.35
2023-09-09T12:49:00.114Z,9.25
2023-09-09T12:51:33.837Z,6.75
2023-09-09T12:54:02.070Z,8.30
2023-09-09T12:56:30.246Z,9.13
2023-09-09T12:58:57.497Z,7.00
2023-09-09T13:01:24.943Z,10.20
2023-09-09T13:03:52.158Z,12.40
2023-09-09T13:06:19.401Z,10.18
2023-09-09T13:08:46.613Z,9.50
2023-09-09T13:11:13.867Z,8.77
2023-09-09T13:13:41.320Z,7.70
2023-09-09T13:16:09.320Z,5.68
2023-09-09T13:18:36.702Z,7.38
2023-09-09T13:21:04.088Z,8.68
2023-09-09T13:23:31.473Z,9.15
2023-09-09T13:25:58.828Z,7.93
2023-09-09T13:28:26.124Z,5.80
2023-09-09T13:30:53.734Z,10.13
2023-09-09T13:33:21.037Z,9.20
2023-09-09T13:35:48.358Z,5.95
2023-09-09T13:38:15.641Z,6.22
2023-09-09T13:40:43.142Z,7.40
2023-09-09T13:43:10.563Z,7.57
2023-09-09T13:45:38.073Z,7.32
2023-09-09T13:48:06.100Z,6.78
2023-09-09T13:50:33.332Z,5.05
2023-09-09T13:53:00.624Z,5.60
2023-09-09T13:55:27.883Z,7.53
2023-09-09T13:57:55.265Z,7.05
2023-09-09T14:00:22.584Z,6.28
2023-09-09T14:02:50.449Z,17.23
2023-09-09T14:05:17.900Z,9.43
2023-09-09T14:07:45.376Z,5.78
2023-09-09T14:10:12.701Z,9.38
2023-09-09T14:12:42.728Z,6.63
2023-09-09T14:15:11.315Z,8.35
2023-09-09T14:17:38.697Z,7.03
2023-09-09T14:20:07.076Z,8.32
2023-09-09T14:22:34.303Z,7.28
2023-09-09T14:25:01.539Z,7.90
2023-09-09T14:27:28.945Z,10.20
2023-09-09T14:29:56.148Z,10.10
2023-09-09T14:32:26.457Z,7.63
2023-09-09T14:34:53.693Z,7.70
2023-09-09T14:37:21.014Z,5.55
2023-09-09T14:39:48.301Z,9.18
2023-09-09T14:42:15.533Z,5.75
2023-09-09T14:44:44.100Z,9.45
2023-09-09T14:47:11.641Z,6.05
2023-09-09T14:49:41.155Z,9.68
2023-09-09T14:52:09.406Z,12.27
2023-09-09T14:54:37.118Z,13.95
2023-09-09T14:57:04.800Z,19.27
2023-09-09T14:59:32.330Z,12.27
2023-09-09T15:01:59.714Z,11.20
2023-09-09T15:04:26.992Z,9.10
2023-09-09T15:06:54.225Z,5.95
2023-09-09T15:09:21.529Z,8.38
2023-09-09T15:11:48.795Z,8.00
2023-09-09T15:14:16.681Z,7.00
2023-09-09T15:16:49.025Z,10.40
2023-09-09T15:21:44.265Z,8.40
2023-09-09T15:24:11.631Z,5.07
2023-09-09T15:26:39.341Z,5.60
2023-09-09T15:29:06.902Z,7.38
2023-09-09T15:31:35.336Z,5.78
2023-09-09T15:34:03.335Z,6.63
2023-09-09T15:36:30.629Z,10.30
2023-09-09T15:38:57.914Z,7.63
2023-09-09T15:41:25.137Z,5.47
2023-09-09T15:43:52.464Z,5.43
2023-09-09T15:46:19.842Z,7.88
2023-09-09T15:48:47.137Z,12.05
2023-09-09T15:51:14.385Z,8.50
2023-09-09T15:53:41.771Z,11.05
2023-09-09T15:56:12.968Z,6.55
2023-09-09T15:58:42.059Z,6.82
2023-09-09T16:01:09.756Z,9.07
2023-09-09T16:03:38.496Z,8.90
2023-09-09T16:06:09.057Z,6.38
2023-09-09T16:08:39.216Z,6.57
2023-09-09T16:11:06.963Z,6.47
2023-09-09T16:13:34.378Z,9.23
2023-09-09T16:16:09.856Z,6.60
2023-09-09T16:18:41.035Z,8.88
2023-09-09T16:21:08.923Z,15.67
2023-09-09T16:23:36.323Z,10.23
2023-09-09T16:26:05.419Z,12.35
2023-09-09T16:28:32.708Z,11.88
2023-09-09T16:31:05.524Z,8.15
2023-09-09T16:33:33.876Z,7.78
2023-09-09T16:36:06.018Z,7.38
2023-09-09T16:38:33.947Z,8.10
2023-09-09T16:41:01.201Z,10.13
2023-09-09T16:43:28.709Z,16.45
2023-09-09T16:45:56.618Z,8.32
2023-09-09T16:48:23.962Z,8.43
2023-09-09T16:50:51.544Z,12.52
2023-09-09T16:53:21.830Z,14.63
2023-09-09T16:55:49.928Z,11.48
2023-09-09T16:58:17.570Z,14.45
2023-09-09T17:00:45.200Z,14.52
2023-09-09T17:03:12.687Z,14.95
2023-09-09T17:05:46.920Z,14.30
2023-09-09T17:08:14.257Z,9.73
2023-09-09T17:10:42.870Z,10.93
2023-09-09T17:13:10.317Z,9.98
2023-09-09T17:15:39.596Z,12.18
2023-09-09T17:18:07.248Z,12.98
2023-09-09T17:20:34.567Z,13.88
2023-09-09T17:23:02.180Z,12.00
2023-09-09T17:25:31.150Z,11.50
2023-09-09T17:27:58.479Z,8.60
2023-09-09T17:30:28.060Z,11.68
2023-09-09T17:32:56.825Z,9.75
2023-09-09T17:35:27.399Z,8.52
2023-09-09T17:37:55.348Z,11.30
2023-09-09T17:43:04.875Z,17.13
2023-09-09T17:45:32.271Z,16.90
2023-09-09T17:48:00.226Z,13.75
2023-09-09T17:50:27.570Z,13.00
2023-09-09T17:52:54.854Z,15.25
2023-09-09T17:55:22.245Z,17.92
2023-09-09T17:57:49.485Z,9.30
2023-09-09T18:00:18.385Z,15.50
2023-09-09T18:02:47.647Z,16.00
2023-09-09T18:05:16.258Z,21.58
2023-09-09T18:07:44.079Z,18.42
2023-09-09T18:10:11.711Z,20.05
2023-09-09T18:12:39.493Z,11.27
2023-09-09T18:15:07.830Z,12.45
2023-09-09T18:17:35.255Z,13.70
2023-09-09T18:20:03.028Z,13.35
2023-09-09T18:22:31.600Z,12.50
2023-09-09T18:24:58.868Z,15.95
2023-09-09T18:27:26.112Z,16.95
2023-09-09T18:29:53.300Z,18.02
2023-09-09T18:32:20.480Z,14.02
2023-09-09T18:34:47.679Z,12.85
2023-09-09T18:37:15.718Z,18.98
2023-09-09T18:39:42.924Z,13.50
2023-09-09T18:42:10.106Z,16.08
2023-09-09T18:44:37.714Z,16.92
2023-09-09T18:47:05.118Z,13.25
2023-09-09T18:49:33.408Z,11.52
2023-09-09T18:52:00.713Z,11.02
2023-09-09T18:54:27.974Z,16.27
2023-09-09T18:56:55.176Z,14.63
2023-09-09T18:59:22.455Z,17.35
2023-09-09T19:01:52.449Z,16.58
2023-09-09T19:04:20.775Z,22.65
2023-09-09T19:06:48.335Z,13.30
2023-09-09T19:09:16.407Z,20.95
2023-09-09T19:11:43.691Z,19.50
2023-09-09T19:14:10.994Z,16.65
2023-09-09T19:16:39.158Z,13.52
2023-09-09T19:19:06.512Z,20.55
2023-09-09T19:21:33.768Z,17.38
2023-09-09T19:24:02.037Z,17.20
2023-09-09T19:26:29.297Z,19.27
2023-09-09T19:28:57.056Z,14.05
2023-09-09T19:31:24.562Z,19.73
2023-09-09T19:33:52.200Z,16.88
2023-09-09T19:36:19.387Z,15.38
2023-09-09T19:38:46.592Z,17.13
2023-09-09T19:41:13.780Z,12.75
2023-09-09T19:43:41.645Z,16.77
2023-09-09T19:46:10.325Z,15.27
2023-09-09T19:48:37.786Z,15.15
2023-09-09T19:51:05.157Z,17.15
2023-09-09T19:53:32.411Z,19.88
2023-09-09T19:55:59.749Z,16.75
2023-09-09T19:58:28.511Z,15.02
2023-09-09T20:00:55.904Z,16.38
2023-09-09T20:03:23.792Z,15.20
2023-09-09T20:05:51.248Z,24.25
2023-09-09T20:08:18.452Z,14.45
2023-09-09T20:10:45.916Z,12.90
2023-09-09T20:13:13.187Z,15.85
2023-09-09T20:15:40.479Z,13.70
2023-09-09T20:18:09.331Z,12.88
2023-09-09T20:20:40.116Z,17.25
2023-09-09T20:23:07.419Z,15.63
2023-09-09T20:25:34.720Z,23.17
2023-09-09T20:28:02.109Z,14.38
2023-09-09T20:30:31.149Z,16.25
2023-09-09T20:32:58.876Z,21.08
2023-09-09T20:35:34.761Z,18.75
2023-09-09T20:38:04.308Z,14.48
2023-09-09T20:40:31.695Z,19.40
2023-09-09T20:43:02.066Z,21.25
2023-09-09T20:45:30.547Z,15.90
2023-09-09T20:47:58.124Z,16.98
2023-09-09T20:50:28.178Z,11.07
2023-09-09T20:52:55.862Z,17.98
2023-09-09T20:55:23.823Z,20.30
2023-09-09T20:57:51.634Z,22.85
2023-09-09T21:00:19.982Z,14.20
2023-09-09T21:02:52.030Z,20.95
2023-09-09T21:05:21.567Z,18.77
2023-09-09T21:07:50.039Z,17.85
2023-09-09T21:10:19.118Z,18.00
2023-09-09T21:12:48.771Z,14.35
2023-09-09T21:15:18.231Z,21.63
2023-09-09T21:17:46.677Z,13.18
2023-09-09T21:20:14.388Z,14.80
2023-09-09T21:22:41.748Z,13.80
2023-09-09T21:25:12.567Z,18.25
2023-09-09T21:27:39.821Z,17.02
2023-09-09T21:30:07.768Z,14.30
2023-09-09T21:32:35.129Z,16.95
2023-09-09T21:35:02.676Z,17.10
2023-09-09T21:37:30.014Z,16.13
2023-09-09T21:39:57.253Z,17.90
2023-09-09T21:42:24.501Z,18.60
2023-09-09T21:44:51.716Z,13.38
2023-09-09T21:47:18.979Z,14.85
2023-09-09T21:49:46.235Z,19.23
2023-09-09T21:52:13.469Z,17.65
2023-09-09T21:54:40.743Z,16.67
2023-09-09T21:57:08.190Z,19.13
2023-09-09T21:59:35.509Z,17.67
2023-09-09T22:02:02.878Z,16.27
2023-09-09T22:04:30.952Z,17.83
2023-09-09T22:07:02.901Z,15.32
2023-09-09T22:09:34.077Z,16.23
2023-09-09T22:12:01.421Z,19.67
2023-09-09T22:14:28.784Z,20.05
2023-09-09T22:17:01.472Z,15.23
2023-09-09T22:19:29.085Z,14.15
2023-09-09T22:21:56.424Z,18.00
2023-09-09T22:24:23.708Z,15.65
2023-09-09T22:26:50.925Z,15.68
2023-09-09T22:29:18.157Z,16.35
2023-09-09T22:31:45.493Z,15.88
2023-09-09T22:34:12.745Z,15.10
2023-09-09T22:36:39.993Z,22.02
2023-09-09T22:39:07.154Z,26.13
2023-09-09T22:41:34.364Z,21.40
2023-09-09T22:44:01.663Z,20.23
2023-09-09T22:46:29.079Z,18.00
2023-09-09T22:48:56.328Z,17.30
2023-09-09T22:51:25.834Z,19.85
2023-09-09T22:53:53.446Z,19.40
2023-09-09T22:56:21.165Z,18.48
2023-09-09T22:58:48.419Z,21.20
2023-09-09T23:01:17.891Z,23.02
2023-09-09T23:03:45.411Z,19.92
2023-09-09T23:06:12.938Z,20.63
2023-09-09T23:08:40.389Z,19.42
2023-09-09T23:11:14.055Z,21.73
2023-09-09T23:13:42.871Z,22.38
2023-09-09T23:16:10.506Z,21.83
2023-09-09T23:18:39.729Z,18.30
2023-09-09T23:21:07.258Z,18.17
2023-09-09T23:23:34.699Z,21.27
2023-09-09T23:26:02.999Z,25.27
2023-09-09T23:28:30.677Z,25.33
2023-09-09T23:31:03.099Z,21.45
2023-09-09T23:33:32.449Z,18.48
2023-09-09T23:36:09.078Z,21.10
2023-09-09T23:38:36.541Z,20.38
2023-09-09T23:41:04.090Z,20.58
2023-09-09T23:43:31.353Z,20.30
2023-09-09T23:45:58.579Z,20.58
2023-09-09T23:48:25.874Z,21.50
2023-09-09T23:50:53.079Z,17.73
2023-09-09T23:53:20.284Z,19.50
2023-09-09T23:55:47.584Z,16.88
2023-09-09T23:58:15.138Z,13.80
